Weather observations for the past three days for
Fort Sill
Metric (Imperial)
Date Time (cdt) Wind (kph) Vis. (km) Weather Sky Cond. Temperature (ºC) Relative Humidity Wind Chill (°C) Heat Index (°C) Pressure Precipitation (cm)
Air Dwpt 6 hour altimeter (cm) sea level (mb) 1 hr 3 hr 6 hr
Max. Min.
04 19:55 SE 19 16.09 Fair CLR 35.4 17.6 35% 36 75.72 1008.2
04 18:55 SE 22 16.09 Fair CLR 37.6 17.5 40 35.9 31% 39 75.67 1007.5
04 17:55 SE 22 16.09 A Few Clouds FEW085 37.9 17.3 30% 39 75.64 1007.1
04 16:55 SE 22 16.09 A Few Clouds FEW080 40 17.4 27% 42 75.64 1007.0
04 15:55 S 20 G 33 16.09 Fair CLR 39.9 17.9 28% 42 75.69 1007.7
04 14:55 SE 20 16.09 Fair CLR 39.3 17.9 29% 41 75.74 1008.4
04 13:55 S 17 16.09 Fair CLR 37.6 19.5 35% 40 75.79 1009.1
04 12:55 S 24 16.09 Fair CLR 36.2 20 36.2 24.1 39% 39 75.84 1009.8
04 11:55 S 15 16.09 Fair CLR 34.3 20.6 45% 37 75.92 1010.9
04 10:55 S 24 16.09 Fair CLR 32 21.2 53% 35 75.92 1010.9
04 09:55 S 22 16.09 Fair CLR 30 21.6 61% 33 75.92 1010.9
04 08:55 S 19 16.09 Fair CLR 27.3 21.5 71% 29 75.92 1011.0
04 07:55 SE 11 16.09 Fair CLR 24.8 20.9 79% 26 75.9 1010.6
04 06:55 S 13 16.09 Fair CLR 24.6 20.9 27.8 24.6 80% 25 75.87 1010.2
04 05:55 S 11 16.09 Fair CLR 25.1 20.5 76% 26 75.84 1009.9
04 04:55 S 11 16.09 Fair CLR 25.5 20.5 74% 27 75.84 1009.8
04 03:55 S 13 16.09 Fair CLR 26 20.3 71% 27 75.82 1009.5
04 02:55 S 15 16.09 Fair CLR 26.8 20.4 68% 28 75.84 1009.8
04 01:55 S 17 16.09 Fair CLR 27.3 20.8 68% 29 75.84 1009.8
04 00:55 SE 15 16.09 Fair CLR 27.8 21.3 36.2 27.8 68% 30 75.84 1009.8
03 23:55 SE 20 16.09 Fair CLR 28.6 21.3 65% 31 75.82 1009.5
03 22:55 SE 22 16.09 Fair CLR 29.4 21.6 63% 32 75.84 1009.9
03 21:55 SE 24 G 37 16.09 Fair CLR 30.2 21.5 60% 33 75.79 1009.3
03 19:55 SE 22 16.09 Fair CLR 34.1 19.3 42% 36 75.67 1007.5
03 18:55 SE 20 16.09 Fair CLR 36.3 18.3 38.4 35.2 35% 38 75.64 1007.2
03 17:55 SE 24 16.09 Fair CLR 37.6 17.5 31% 39 75.62 1006.8
03 16:55 SE 24 G 30 16.09 Fair CLR 38 18.4 32% 40 75.62 1006.7
03 15:55 SE 20 16.09 Fair CLR 37.9 18.8 33% 40 75.67 1007.4
03 14:55 SE 17 16.09 Fair CLR 37.1 18.6 34% 39 75.72 1008.1
03 13:55 S 11 16.09 A Few Clouds FEW210 37 19 35% 39 75.77 1008.7
03 12:55 S 19 16.09 Fair CLR 35.3 19.6 35.3 23.8 40% 38 75.84 1009.8
03 11:55 S 15 16.09 Fair CLR 32.9 20.4 48% 35 75.9 1010.5
03 10:55 SE 17 16.09 Fair CLR 30.6 20.8 56% 33 75.9 1010.5
03 09:55 S 15 16.09 Fair CLR 28.9 21.1 63% 31 75.95 1011.2
03 08:55 S 19 16.09 Fair CLR 26.9 21.4 72% 29 75.97 1011.6
03 07:55 SE 17 16.09 Fair CLR 24.7 20.4 77% 25 75.95 1011.3
03 06:55 SE 7 16.09 Fair CLR 23.9 19.8 30 23.9 78% 24 75.92 1010.9
03 05:55 SE 11 16.09 Fair CLR 24.9 19.9 74% 26 75.9 1010.5
03 04:55 S 11 16.09 Fair CLR 25.9 19.7 69% 27 75.92 1010.8
03 03:55 S 11 16.09 NULL NULL 26.5 19.6 66% 28 75.9 1010.4
03 02:55 SE 13 16.09 NULL NULL 27.8 19.3 60% 29 75.9 1010.4
03 01:55 SE 15 16.09 Fair CLR 28.9 19.2 56% 30 75.9 1010.4
03 00:55 SE 20 16.09 Fair CLR 30 19 37.7 30 52% 31 75.87 1010.0
02 23:55 SE 20 16.09 Fair CLR 31 17.6 45% 32 75.87 1010.0
02 22:55 SE 19 16.09 Fair CLR 31.8 17.3 42% 32 75.87 1010.1
02 21:55 SE 22 16.09 Fair CLR 32.6 16.4 38% 33 75.87 1010.1
02 20:55 SE 19 16.09 Fair CLR 34 16.3 35% 34 75.82 1009.5
02 19:55 SE 19 16.09 Fair CLR 35.7 15.9 31% 36 75.74 1008.5
02 18:55 SE 19 16.09 Fair CLR 37.8 16.1 39.5 36.9 28% 38 75.74 0.0
02 17:55 SE 15 16.09 Fair CLR 38.9 12.6 21% 38 75.74 1008.4
02 16:55 S 19 16.09 Fair CLR 39.3 14.3 23% 39 75.77 1008.8
02 15:55 SE 19 16.09 Fair CLR 39.5 15.1 24% 40 75.82 1009.4
02 14:55 S 17 16.09 Fair CLR 38.7 16.3 27% 39 75.9 1010.4
02 13:55 SE 7 16.09 Fair CLR 38 16.3 28% 39 75.95 1011.1
02 12:55 SE 15 16.09 Fair CLR 37.1 17.1 37.2 25 31% 38 76.05 1012.5
02 11:55 S 15 16.09 Fair CLR 35.9 18 35% 37 76.1 1013.2
02 10:55 S 15 16.09 Fair CLR 34.2 19 41% 36 76.12 1013.5
02 09:55 S 20 16.09 Fair CLR 31.6 19.2 48% 33 76.12 1013.5
02 08:55 S 17 16.09 Fair CLR 28.8 19.1 56% 30 76.12 1013.6
02 07:55 S 9 16.09 Fair CLR 26 19.1 66% 27 76.12 1013.7
02 05:55 SE 9 16.09 Fair CLR 24.9 17.8 65% 26 76.07 1012.9
02 04:55 SE 7 16.09 Fair CLR 24.9 17.3 63% 26 76.05 1012.5
02 03:55 S 7 16.09 Fair CLR 26 17.3 59% 27 76.05 1012.5
02 02:55 S 7 16.09 Fair CLR 27.1 17.3 55% 28 76.02 1012.1
02 01:55 S 7 16.09 Fair CLR 27.7 16.9 52% 28 76.05 1012.5
02 00:55 SE 11 16.09 Fair CLR 27.9 16.8 36.7 27.9 51% 28 76.05 1012.5
01 23:55 SE 7 16.09 Fair CLR 29 16.8 48% 29 76.02 1012.2
01 22:55 S 13 16.09 Fair CLR 30.2 16.2 43% 30 76.02 1012.2
01 21:55 SE 13 16.09 Fair CLR 31.8 15.7 38% 32 75.97 1011.5
01 20:55 SE 13 16.09 Fair CLR 32.9 15.4 35% 33 75.9 1010.5
Date Time (cdt) Wind (kph) Vis. (km) Weather Sky Cond. Air Dwpt Max. Min. Relative Humidity Wind Chill (°C) Heat Index (°C) altimeter (cm) sea level (mb) 1 hr 3 hr 6 hr
6 hour
Temperature (ºC) Pressure Precipitation (cm)